Time;durP1;ratioP1;P1;durP2;ratioP2;P2;SDS_P1;SDS_P2;PMS_P1;PMS_P2;Temp;Humidity;BMP_temperature;BMP_pressure;BME280_temperature;BME280_humidity;BME280_pressure;Samples;Min_cycle;Max_cycle;Signal;HPM_P1;HPM_P2
2022/10/17 00:00:18;;;;;;;3.33;2.00;;;;;;;;;;5084258;28;20297;-80
2022/10/17 00:02:43;;;;;;;2.60;2.03;;;;;;;;;;5087735;28;20222;-80
2022/10/17 00:05:10;;;;;;;3.87;2.40;;;;;;;;;;5080141;28;20209;-80
2022/10/17 00:07:35;;;;;;;6.97;2.30;;;;;;;;;;5086983;28;20193;-80
2022/10/17 00:10:01;;;;;;;3.10;2.17;;;;;;;;;;5085863;28;20178;-80
2022/10/17 00:12:26;;;;;;;2.90;2.40;;;;;;;;;;5084191;28;20269;-80
2022/10/17 00:14:51;;;;;;;8.27;2.50;;;;;;;;;;5086267;28;20229;-80
2022/10/17 00:17:16;;;;;;;4.03;2.13;;;;;;;;;;5087095;28;20241;-81
2022/10/17 00:19:41;;;;;;;3.17;2.80;;;;;;;;;;5087689;28;20180;-80
2022/10/17 00:22:07;;;;;;;2.30;2.10;;;;;;;;;;5087784;28;20179;-80
2022/10/17 00:24:32;;;;;;;2.60;2.20;;;;;;;;;;5081588;28;20186;-80
2022/10/17 00:26:57;;;;;;;2.57;2.10;;;;;;;;;;5082810;28;20182;-80
2022/10/17 00:29:22;;;;;;;2.80;2.00;;;;;;;;;;5081537;28;20270;-80
2022/10/17 00:31:48;;;;;;;2.60;2.40;;;;;;;;;;5089150;28;20232;-80
2022/10/17 00:34:13;;;;;;;5.17;2.43;;;;;;;;;;5087458;28;20197;-80
2022/10/17 00:36:38;;;;;;;4.63;2.33;;;;;;;;;;5085517;28;20182;-80
2022/10/17 00:39:03;;;;;;;3.43;2.10;;;;;;;;;;5080637;28;20233;-80
2022/10/17 00:41:30;;;;;;;3.37;2.27;;;;;;;;;;5080528;28;20224;-80
2022/10/17 00:43:58;;;;;;;2.43;2.20;;;;;;;;;;5088348;28;20173;-80
2022/10/17 00:46:24;;;;;;;3.50;2.40;;;;;;;;;;5087586;28;20198;-80
2022/10/17 00:48:51;;;;;;;2.73;2.40;;;;;;;;;;5089016;28;20364;-80
2022/10/17 00:51:18;;;;;;;2.83;2.50;;;;;;;;;;5086311;28;20205;-80
2022/10/17 00:53:44;;;;;;;3.77;2.33;;;;;;;;;;5090283;28;20231;-80
2022/10/17 00:56:10;;;;;;;2.50;2.30;;;;;;;;;;5090642;28;20184;-80
2022/10/17 00:58:35;;;;;;;4.97;2.70;;;;;;;;;;5090215;28;20204;-80
2022/10/17 01:01:00;;;;;;;5.90;2.80;;;;;;;;;;5086767;28;20263;-80
2022/10/17 01:03:26;;;;;;;6.00;2.83;;;;;;;;;;5090248;28;20183;-80
2022/10/17 01:05:51;;;;;;;5.80;2.40;;;;;;;;;;5091079;28;20206;-80
2022/10/17 01:08:16;;;;;;;3.87;2.70;;;;;;;;;;5088886;28;20182;-80
2022/10/17 01:11:04;;;;;;;3.97;2.40;;;;;;;;;;5091540;28;20177;-80
2022/10/17 01:13:33;;;;;;;6.27;2.53;;;;;;;;;;5105732;28;20174;-80
2022/10/17 01:16:22;;;;;;;4.47;2.33;;;;;;;;;;5088678;28;21432;-80
2022/10/17 01:18:52;;;;;;;4.47;2.90;;;;;;;;;;5086466;28;20174;-80
2022/10/17 01:21:24;;;;;;;5.67;3.00;;;;;;;;;;5086785;28;20181;-80
2022/10/17 01:23:49;;;;;;;2.90;2.50;;;;;;;;;;5090594;28;20194;-80
2022/10/17 01:26:17;;;;;;;3.20;2.80;;;;;;;;;;5087538;28;20187;-80
2022/10/17 01:28:48;;;;;;;3.00;2.70;;;;;;;;;;5092081;28;20182;-80
2022/10/17 01:31:15;;;;;;;2.90;2.53;;;;;;;;;;5087438;28;20180;-80
2022/10/17 01:33:49;;;;;;;3.00;2.60;;;;;;;;;;5088495;28;20203;-80
2022/10/17 01:36:27;;;;;;;4.73;2.80;;;;;;;;;;5091295;28;20189;-80
2022/10/17 01:38:56;;;;;;;3.23;2.93;;;;;;;;;;5091903;28;20177;-80
2022/10/17 01:41:21;;;;;;;3.43;2.77;;;;;;;;;;5090280;28;20189;-80
2022/10/17 01:43:51;;;;;;;3.67;2.60;;;;;;;;;;5080807;28;20183;-80
2022/10/17 01:46:25;;;;;;;4.30;2.90;;;;;;;;;;5086432;28;20213;-80
2022/10/17 01:48:51;;;;;;;2.73;2.53;;;;;;;;;;5090665;28;20205;-80
2022/10/17 01:51:30;;;;;;;2.70;2.37;;;;;;;;;;5087686;28;20247;-80
2022/10/17 01:53:59;;;;;;;3.73;2.40;;;;;;;;;;5089292;28;20298;-80
2022/10/17 01:56:26;;;;;;;8.07;2.90;;;;;;;;;;5089671;28;20194;-80
2022/10/17 01:58:56;;;;;;;3.17;2.47;;;;;;;;;;5084384;28;20185;-80
2022/10/17 02:01:23;;;;;;;4.80;2.50;;;;;;;;;;5083036;28;20286;-80
2022/10/17 02:03:49;;;;;;;5.20;3.33;;;;;;;;;;5079624;28;20185;-80
2022/10/17 02:06:15;;;;;;;5.03;2.77;;;;;;;;;;5086573;28;20283;-80
2022/10/17 02:08:41;;;;;;;2.80;2.60;;;;;;;;;;5087921;28;20266;-80
2022/10/17 02:11:11;;;;;;;2.97;2.67;;;;;;;;;;5088635;28;20194;-80
2022/10/17 02:13:57;;;;;;;2.60;2.40;;;;;;;;;;5090233;28;20182;-80
2022/10/17 02:16:32;;;;;;;2.60;2.40;;;;;;;;;;5084158;28;20322;-80
2022/10/17 02:19:07;;;;;;;4.57;2.80;;;;;;;;;;5080426;28;20170;-80
2022/10/17 02:21:39;;;;;;;3.77;2.60;;;;;;;;;;5089264;28;20173;-80
2022/10/17 02:24:18;;;;;;;3.80;2.77;;;;;;;;;;5090179;28;20293;-80
2022/10/17 02:26:46;;;;;;;2.53;2.33;;;;;;;;;;5090689;28;20199;-80
2022/10/17 02:29:19;;;;;;;4.60;2.57;;;;;;;;;;5089642;28;20277;-80
2022/10/17 02:31:50;;;;;;;3.30;2.73;;;;;;;;;;5082409;28;20209;-80
2022/10/17 02:34:35;;;;;;;2.40;2.20;;;;;;;;;;5083932;28;20224;-80
2022/10/17 02:37:02;;;;;;;4.00;2.40;;;;;;;;;;5099312;28;20177;-80
2022/10/17 02:39:28;;;;;;;3.83;2.27;;;;;;;;;;5090070;28;20174;-80
2022/10/17 02:41:55;;;;;;;6.00;2.67;;;;;;;;;;5088430;28;20256;-80
2022/10/17 02:44:21;;;;;;;3.00;2.60;;;;;;;;;;5087830;28;20185;-80
2022/10/17 02:46:51;;;;;;;3.40;2.80;;;;;;;;;;5086197;28;20253;-80
2022/10/17 02:49:26;;;;;;;4.47;2.70;;;;;;;;;;5088474;28;20510;-80
2022/10/17 02:51:56;;;;;;;3.33;2.63;;;;;;;;;;5081013;28;20328;-80
2022/10/17 02:54:27;;;;;;;4.60;2.70;;;;;;;;;;5079873;28;20229;-80
2022/10/17 02:56:54;;;;;;;3.83;2.50;;;;;;;;;;5090557;28;20263;-80
2022/10/17 02:59:20;;;;;;;3.57;2.90;;;;;;;;;;5089067;28;20177;-80
2022/10/17 03:01:46;;;;;;;3.80;2.63;;;;;;;;;;5087268;28;20184;-80
2022/10/17 03:04:13;;;;;;;3.10;2.70;;;;;;;;;;5085443;28;20184;-80
2022/10/17 03:06:38;;;;;;;4.20;2.73;;;;;;;;;;5088042;28;20183;-80
2022/10/17 03:09:04;;;;;;;3.13;2.63;;;;;;;;;;5085028;28;20226;-80
2022/10/17 03:11:29;;;;;;;5.07;3.10;;;;;;;;;;5089415;28;20181;-80
2022/10/17 03:13:55;;;;;;;3.17;2.87;;;;;;;;;;5088240;28;20196;-80
2022/10/17 03:16:20;;;;;;;3.40;2.57;;;;;;;;;;5089699;28;20267;-80
2022/10/17 03:18:45;;;;;;;5.30;3.03;;;;;;;;;;5085680;28;20200;-80
2022/10/17 03:21:10;;;;;;;3.83;2.67;;;;;;;;;;5082440;28;20192;-80
2022/10/17 03:23:35;;;;;;;3.47;2.50;;;;;;;;;;5087328;28;20212;-80
2022/10/17 03:26:04;;;;;;;2.93;2.60;;;;;;;;;;5087952;28;20309;-80
2022/10/17 03:28:30;;;;;;;3.20;2.30;;;;;;;;;;5089208;28;20177;-80
2022/10/17 03:30:55;;;;;;;3.60;2.93;;;;;;;;;;5083453;28;20181;-80
2022/10/17 03:33:20;;;;;;;3.30;2.60;;;;;;;;;;5089531;28;20181;-80
2022/10/17 03:35:45;;;;;;;3.70;2.43;;;;;;;;;;5086238;28;20207;-80
2022/10/17 03:38:10;;;;;;;5.60;2.73;;;;;;;;;;5088880;28;20191;-80
2022/10/17 03:40:36;;;;;;;4.23;2.90;;;;;;;;;;5078812;28;20231;-80
2022/10/17 03:43:01;;;;;;;6.30;2.20;;;;;;;;;;5086207;28;20185;-80
2022/10/17 03:45:26;;;;;;;3.47;2.50;;;;;;;;;;5089867;28;20249;-80
2022/10/17 03:47:51;;;;;;;2.50;2.20;;;;;;;;;;5086541;28;20201;-80
2022/10/17 03:50:16;;;;;;;4.97;2.60;;;;;;;;;;5086847;28;20176;-80
2022/10/17 03:52:45;;;;;;;3.40;2.50;;;;;;;;;;5088957;28;20182;-80
2022/10/17 03:55:10;;;;;;;3.57;2.20;;;;;;;;;;5079176;28;20357;-80
2022/10/17 03:57:35;;;;;;;3.70;2.70;;;;;;;;;;5083424;28;20178;-80
2022/10/17 04:00:01;;;;;;;4.10;2.60;;;;;;;;;;5080502;28;20182;-80
2022/10/17 04:02:26;;;;;;;3.93;2.67;;;;;;;;;;5087827;28;20181;-80
2022/10/17 04:04:51;;;;;;;4.20;2.73;;;;;;;;;;5084118;28;20231;-80
2022/10/17 04:07:16;;;;;;;3.27;2.67;;;;;;;;;;5081872;28;20254;-80
2022/10/17 04:09:42;;;;;;;5.00;2.73;;;;;;;;;;5087940;28;20185;-81
2022/10/17 04:12:07;;;;;;;3.43;2.70;;;;;;;;;;5085321;28;20179;-80
2022/10/17 04:14:32;;;;;;;9.23;3.30;;;;;;;;;;5082021;28;20205;-80
2022/10/17 04:16:57;;;;;;;5.27;2.70;;;;;;;;;;5083024;28;20179;-80
2022/10/17 04:19:24;;;;;;;4.70;2.70;;;;;;;;;;5087074;28;20176;-81
2022/10/17 04:21:49;;;;;;;4.00;2.67;;;;;;;;;;5083413;28;20268;-80
2022/10/17 04:24:15;;;;;;;3.07;2.27;;;;;;;;;;5085668;28;20256;-80
2022/10/17 04:26:40;;;;;;;4.77;2.70;;;;;;;;;;5089803;28;20185;-80
2022/10/17 04:29:05;;;;;;;6.30;3.43;;;;;;;;;;5090640;28;20191;-80
2022/10/17 04:31:30;;;;;;;2.63;2.43;;;;;;;;;;5092175;28;20185;-81
2022/10/17 04:33:56;;;;;;;3.57;3.20;;;;;;;;;;5088740;28;20202;-80
2022/10/17 04:36:22;;;;;;;5.83;3.00;;;;;;;;;;5089994;28;20184;-80
2022/10/17 04:38:47;;;;;;;5.30;3.23;;;;;;;;;;5082940;28;20188;-80
2022/10/17 04:41:14;;;;;;;4.27;2.53;;;;;;;;;;5085428;28;20195;-80
2022/10/17 04:43:39;;;;;;;3.37;2.80;;;;;;;;;;5089530;28;20178;-80
2022/10/17 04:46:09;;;;;;;3.47;3.17;;;;;;;;;;5085699;28;20204;-80
2022/10/17 04:48:35;;;;;;;4.93;3.33;;;;;;;;;;5091636;28;20192;-80
2022/10/17 04:51:07;;;;;;;9.50;3.20;;;;;;;;;;5086853;28;20211;-80
2022/10/17 04:53:34;;;;;;;3.07;2.60;;;;;;;;;;5085630;28;20243;-79
2022/10/17 04:55:59;;;;;;;3.60;2.80;;;;;;;;;;5088943;28;20174;-74
2022/10/17 04:58:26;;;;;;;3.10;2.47;;;;;;;;;;5088521;28;20253;-80
2022/10/17 05:00:52;;;;;;;2.73;2.30;;;;;;;;;;5106217;28;20178;-80
2022/10/17 05:03:17;;;;;;;5.53;3.10;;;;;;;;;;5092270;28;20323;-80
2022/10/17 05:05:42;;;;;;;3.40;3.10;;;;;;;;;;5085883;28;20274;-80
2022/10/17 05:08:08;;;;;;;3.73;3.00;;;;;;;;;;5090066;28;20241;-80
2022/10/17 05:10:41;;;;;;;4.20;2.80;;;;;;;;;;5088434;28;20186;-80
2022/10/17 05:13:07;;;;;;;2.50;2.30;;;;;;;;;;5090464;28;20180;-81
2022/10/17 05:15:32;;;;;;;3.30;3.00;;;;;;;;;;5092450;28;20207;-80
2022/10/17 05:17:57;;;;;;;2.70;2.50;;;;;;;;;;5092150;28;20188;-81
2022/10/17 05:20:23;;;;;;;3.43;2.70;;;;;;;;;;5087582;28;20190;-80
2022/10/17 05:22:48;;;;;;;5.37;2.47;;;;;;;;;;5087246;28;20180;-80
2022/10/17 05:25:14;;;;;;;2.83;2.63;;;;;;;;;;5088517;28;20194;-80
2022/10/17 05:27:39;;;;;;;2.73;2.53;;;;;;;;;;5090323;28;20192;-80
2022/10/17 05:30:04;;;;;;;2.50;2.30;;;;;;;;;;5087741;28;20187;-80
2022/10/17 05:32:30;;;;;;;3.93;2.23;;;;;;;;;;5087529;28;20179;-80
2022/10/17 05:34:55;;;;;;;2.60;2.40;;;;;;;;;;5091834;28;20223;-80
2022/10/17 05:37:20;;;;;;;2.63;1.87;;;;;;;;;;5087110;28;20181;-80
2022/10/17 05:39:45;;;;;;;3.63;2.60;;;;;;;;;;5080522;28;20184;-80
2022/10/17 05:42:11;;;;;;;2.77;2.33;;;;;;;;;;5082727;28;20446;-81
2022/10/17 05:44:38;;;;;;;6.23;3.13;;;;;;;;;;5085880;28;20172;-80
2022/10/17 05:47:03;;;;;;;4.00;3.30;;;;;;;;;;5088863;28;20232;-80
2022/10/17 05:49:28;;;;;;;5.37;3.10;;;;;;;;;;5084528;28;20313;-80
2022/10/17 05:51:53;;;;;;;3.27;2.63;;;;;;;;;;5085480;28;20176;-80
2022/10/17 05:54:18;;;;;;;3.90;2.30;;;;;;;;;;5090583;28;20228;-80
2022/10/17 05:56:44;;;;;;;3.30;2.60;;;;;;;;;;5084792;28;20177;-80
2022/10/17 05:59:09;;;;;;;2.80;2.30;;;;;;;;;;5083125;28;20172;-80
2022/10/17 06:01:34;;;;;;;4.37;3.50;;;;;;;;;;5081959;28;20268;-80
2022/10/17 06:03:59;;;;;;;4.57;3.20;;;;;;;;;;5085743;28;20250;-80
2022/10/17 06:06:24;;;;;;;2.80;2.30;;;;;;;;;;5084910;28;20199;-80
2022/10/17 06:08:50;;;;;;;3.43;2.47;;;;;;;;;;5089584;28;20207;-80
2022/10/17 06:11:15;;;;;;;3.37;2.40;;;;;;;;;;5085426;28;20185;-80
2022/10/17 06:13:40;;;;;;;4.50;2.50;;;;;;;;;;5086475;28;20183;-81
2022/10/17 06:16:06;;;;;;;2.40;2.20;;;;;;;;;;5083796;28;20178;-80
2022/10/17 06:18:32;;;;;;;2.63;2.23;;;;;;;;;;5086915;28;20195;-80
2022/10/17 06:21:01;;;;;;;4.33;2.70;;;;;;;;;;5086125;28;20187;-80
2022/10/17 06:23:26;;;;;;;2.80;2.60;;;;;;;;;;5084534;28;20181;-80
2022/10/17 06:25:52;;;;;;;4.80;2.93;;;;;;;;;;5089027;28;20683;-81
2022/10/17 06:28:17;;;;;;;2.50;2.07;;;;;;;;;;5087095;28;20192;-81
2022/10/17 06:30:42;;;;;;;2.90;2.57;;;;;;;;;;5088241;28;20187;-80
2022/10/17 06:33:07;;;;;;;5.07;2.80;;;;;;;;;;5088255;28;20216;-80
2022/10/17 06:35:32;;;;;;;5.13;2.63;;;;;;;;;;5089400;28;20279;-81
2022/10/17 06:37:58;;;;;;;5.77;2.40;;;;;;;;;;5085160;28;20201;-81
2022/10/17 06:40:23;;;;;;;2.80;2.53;;;;;;;;;;5083358;28;20180;-80
2022/10/17 06:42:48;;;;;;;5.10;2.90;;;;;;;;;;5087173;28;20194;-80
2022/10/17 06:45:14;;;;;;;2.97;2.63;;;;;;;;;;5083374;28;20197;-81
2022/10/17 06:47:39;;;;;;;3.53;2.80;;;;;;;;;;5089473;28;20204;-80
2022/10/17 06:50:04;;;;;;;2.90;2.47;;;;;;;;;;5088398;28;20182;-81
2022/10/17 06:52:30;;;;;;;4.10;2.20;;;;;;;;;;5092934;28;20482;-81
2022/10/17 06:54:55;;;;;;;4.70;2.60;;;;;;;;;;5083424;28;20559;-80
2022/10/17 06:57:20;;;;;;;4.13;2.33;;;;;;;;;;5090656;28;20182;-80
2022/10/17 06:59:45;;;;;;;3.50;2.40;;;;;;;;;;5086265;28;20255;-80
2022/10/17 07:02:11;;;;;;;2.90;2.60;;;;;;;;;;5084670;28;20173;-81
2022/10/17 07:04:36;;;;;;;3.23;2.57;;;;;;;;;;5085427;28;20204;-81
2022/10/17 07:07:02;;;;;;;3.80;2.50;;;;;;;;;;5085339;28;20198;-81
2022/10/17 07:09:27;;;;;;;4.03;2.40;;;;;;;;;;5089877;28;20185;-81
2022/10/17 07:11:53;;;;;;;3.10;2.80;;;;;;;;;;5087424;28;20181;-80
2022/10/17 07:14:18;;;;;;;2.97;2.50;;;;;;;;;;5089518;28;20456;-80
2022/10/17 07:16:44;;;;;;;2.30;2.10;;;;;;;;;;5088055;28;20179;-80
2022/10/17 07:19:09;;;;;;;2.70;2.50;;;;;;;;;;5090739;28;20171;-81
2022/10/17 07:21:34;;;;;;;8.37;2.30;;;;;;;;;;5084620;28;20182;-81
2022/10/17 07:23:59;;;;;;;3.17;2.50;;;;;;;;;;5085604;28;20179;-81
2022/10/17 07:26:25;;;;;;;3.23;2.57;;;;;;;;;;5085866;28;20198;-81
2022/10/17 07:28:51;;;;;;;8.47;3.13;;;;;;;;;;5089858;28;20185;-81
2022/10/17 07:31:17;;;;;;;8.53;2.77;;;;;;;;;;5088467;28;20177;-81
2022/10/17 07:33:43;;;;;;;5.17;3.00;;;;;;;;;;5086459;28;20675;-81
2022/10/17 07:36:08;;;;;;;3.93;2.60;;;;;;;;;;5083571;28;20271;-81
2022/10/17 07:38:34;;;;;;;2.97;2.20;;;;;;;;;;5088418;28;20199;-81
2022/10/17 07:41:01;;;;;;;4.27;3.17;;;;;;;;;;5084803;28;20184;-81
2022/10/17 07:43:26;;;;;;;2.90;2.70;;;;;;;;;;5085128;28;20187;-81
2022/10/17 07:45:52;;;;;;;3.67;2.30;;;;;;;;;;5084943;28;20197;-81
2022/10/17 07:48:18;;;;;;;2.37;2.10;;;;;;;;;;5081712;28;20186;-81
2022/10/17 07:50:43;;;;;;;2.73;2.53;;;;;;;;;;5087091;28;20182;-75
2022/10/17 07:53:08;;;;;;;3.23;2.43;;;;;;;;;;5084219;28;20241;-80
2022/10/17 07:55:35;;;;;;;5.27;2.40;;;;;;;;;;5089216;28;20196;-80
2022/10/17 07:58:00;;;;;;;4.63;2.13;;;;;;;;;;5088764;28;20204;-80
2022/10/17 08:00:26;;;;;;;3.67;2.00;;;;;;;;;;5082301;28;20212;-80
2022/10/17 08:02:51;;;;;;;15.80;14.70;;;;;;;;;;5083530;28;20229;-81
2022/10/17 08:05:16;;;;;;;2.50;2.30;;;;;;;;;;5081624;28;20205;-80
2022/10/17 08:07:41;;;;;;;3.30;2.13;;;;;;;;;;5090345;28;20188;-81
2022/10/17 08:10:07;;;;;;;3.83;3.40;;;;;;;;;;5087789;28;20286;-81
2022/10/17 08:12:33;;;;;;;1.90;1.70;;;;;;;;;;5083004;28;20443;-81
2022/10/17 08:14:59;;;;;;;2.43;2.13;;;;;;;;;;5085218;28;20201;-81
2022/10/17 08:17:24;;;;;;;4.23;2.97;;;;;;;;;;5082854;28;20272;-81
2022/10/17 08:19:49;;;;;;;2.60;1.90;;;;;;;;;;5086452;28;20172;-81
2022/10/17 08:22:14;;;;;;;4.70;3.10;;;;;;;;;;5078024;28;20181;-81
2022/10/17 08:24:41;;;;;;;2.40;2.20;;;;;;;;;;5082510;28;20173;-81
2022/10/17 08:27:10;;;;;;;3.00;1.97;;;;;;;;;;5084601;28;20185;-81
2022/10/17 08:29:35;;;;;;;3.27;2.17;;;;;;;;;;5085486;28;20256;-81
2022/10/17 08:32:01;;;;;;;3.57;3.07;;;;;;;;;;5079202;28;20186;-81
2022/10/17 08:34:26;;;;;;;2.03;1.83;;;;;;;;;;5088562;28;20205;-82
2022/10/17 08:36:51;;;;;;;5.03;1.93;;;;;;;;;;5086941;28;20228;-81
2022/10/17 08:39:16;;;;;;;2.60;2.07;;;;;;;;;;5088200;28;20183;-81
2022/10/17 08:41:54;;;;;;;6.27;3.67;;;;;;;;;;5089796;28;20269;-81
2022/10/17 08:44:22;;;;;;;7.93;2.80;;;;;;;;;;5088091;28;20173;-82
2022/10/17 08:46:50;;;;;;;3.20;2.90;;;;;;;;;;5087871;28;20221;-82
2022/10/17 08:49:23;;;;;;;2.67;1.97;;;;;;;;;;5091070;28;20187;-82
2022/10/17 08:51:58;;;;;;;1.80;1.70;;;;;;;;;;5088350;28;20211;-82
2022/10/17 08:54:44;;;;;;;4.47;2.20;;;;;;;;;;5088378;28;20230;-81
2022/10/17 08:57:14;;;;;;;2.10;1.80;;;;;;;;;;5077488;28;20198;-82
2022/10/17 08:59:39;;;;;;;3.70;2.03;;;;;;;;;;5082818;28;20175;-82
2022/10/17 09:02:11;;;;;;;2.27;2.07;;;;;;;;;;5082398;28;20236;-82
2022/10/17 09:04:43;;;;;;;6.30;1.83;;;;;;;;;;5078905;28;20191;-82
2022/10/17 09:07:08;;;;;;;2.93;1.70;;;;;;;;;;5081931;28;20202;-82
2022/10/17 09:09:45;;;;;;;5.07;2.03;;;;;;;;;;5086932;28;20222;-82
2022/10/17 09:12:34;;;;;;;2.30;2.10;;;;;;;;;;5087797;28;20179;-82
2022/10/17 09:14:59;;;;;;;2.80;2.60;;;;;;;;;;5087095;28;20205;-83
2022/10/17 09:17:34;;;;;;;5.37;2.87;;;;;;;;;;5088145;28;20187;-82
2022/10/17 09:20:04;;;;;;;2.97;2.07;;;;;;;;;;5092089;28;20230;-82
2022/10/17 09:22:36;;;;;;;2.67;2.43;;;;;;;;;;5088518;28;20175;-83
2022/10/17 09:25:03;;;;;;;3.90;3.00;;;;;;;;;;5091120;28;20176;-83
2022/10/17 09:27:31;;;;;;;3.47;2.60;;;;;;;;;;5086120;28;20200;-82
2022/10/17 09:30:20;;;;;;;4.27;2.73;;;;;;;;;;5084692;28;20175;-83
2022/10/17 09:32:46;;;;;;;11.03;3.77;;;;;;;;;;5083628;28;20184;-83
2022/10/17 09:35:15;;;;;;;5.00;3.90;;;;;;;;;;5085847;28;20261;-83
2022/10/17 09:37:40;;;;;;;3.07;1.73;;;;;;;;;;5089312;28;20208;-83
2022/10/17 09:40:06;;;;;;;3.57;1.90;;;;;;;;;;5087020;28;20257;-83
2022/10/17 09:42:34;;;;;;;3.37;1.90;;;;;;;;;;5092092;28;20264;-83
2022/10/17 09:45:24;;;;;;;5.17;1.90;;;;;;;;;;5092828;28;20216;-83
2022/10/17 09:48:10;;;;;;;8.77;1.97;;;;;;;;;;5086920;28;20205;-84
2022/10/17 09:50:35;;;;;;;2.47;1.90;;;;;;;;;;5087295;28;20267;-83
2022/10/17 09:53:07;;;;;;;3.03;1.87;;;;;;;;;;5090136;28;20370;-83
2022/10/17 09:55:42;;;;;;;4.10;1.63;;;;;;;;;;5081869;28;20206;-84
2022/10/17 09:58:08;;;;;;;3.17;1.47;;;;;;;;;;5092568;28;20190;-84
2022/10/17 10:00:35;;;;;;;2.53;1.80;;;;;;;;;;5087318;28;20184;-84
2022/10/17 10:03:08;;;;;;;2.50;1.80;;;;;;;;;;5089418;28;20169;-84
2022/10/17 10:05:33;;;;;;;3.20;1.90;;;;;;;;;;5089504;28;20247;-84
2022/10/17 10:08:03;;;;;;;3.40;1.37;;;;;;;;;;5087708;28;20180;-83
2022/10/17 10:10:30;;;;;;;2.03;1.80;;;;;;;;;;5082995;28;20194;-84
2022/10/17 10:13:03;;;;;;;4.83;1.83;;;;;;;;;;5087384;28;20182;-83
2022/10/17 10:15:34;;;;;;;1.50;1.40;;;;;;;;;;5091812;28;20227;-84
2022/10/17 10:17:59;;;;;;;5.47;2.07;;;;;;;;;;5084671;28;20176;-83
2022/10/17 10:20:29;;;;;;;3.20;1.77;;;;;;;;;;5085867;28;20246;-84
2022/10/17 10:23:12;;;;;;;5.13;1.90;;;;;;;;;;5089538;28;20225;-84
2022/10/17 10:25:37;;;;;;;2.10;1.87;;;;;;;;;;5083771;28;20200;-85
2022/10/17 10:28:08;;;;;;;2.70;1.70;;;;;;;;;;5085044;28;20208;-84
2022/10/17 10:30:34;;;;;;;5.83;1.97;;;;;;;;;;5088672;28;20169;-85
2022/10/17 10:32:59;;;;;;;4.43;2.07;;;;;;;;;;5087850;28;20266;-85
2022/10/17 10:35:30;;;;;;;3.67;1.80;;;;;;;;;;5083125;28;20203;-84
2022/10/17 10:37:56;;;;;;;3.23;1.80;;;;;;;;;;5090498;28;20182;-85
2022/10/17 10:40:25;;;;;;;3.93;2.13;;;;;;;;;;5090114;28;20459;-85
2022/10/17 10:42:57;;;;;;;3.97;2.03;;;;;;;;;;5083910;28;20179;-84
2022/10/17 10:45:24;;;;;;;2.47;1.80;;;;;;;;;;5080547;28;20189;-85
2022/10/17 10:47:51;;;;;;;6.90;2.10;;;;;;;;;;5086635;28;20200;-85
2022/10/17 10:50:22;;;;;;;1.90;1.60;;;;;;;;;;5083615;28;20182;-84
2022/10/17 10:53:03;;;;;;;3.60;1.70;;;;;;;;;;5087166;28;20525;-85
2022/10/17 10:55:35;;;;;;;4.67;1.90;;;;;;;;;;5087320;28;20220;-84
2022/10/17 10:58:03;;;;;;;2.83;1.73;;;;;;;;;;5084312;28;20181;-85
2022/10/17 11:00:30;;;;;;;2.77;1.80;;;;;;;;;;5088355;28;20181;-85
2022/10/17 11:03:10;;;;;;;3.53;1.90;;;;;;;;;;5088782;28;20189;-85
2022/10/17 11:05:44;;;;;;;3.20;1.90;;;;;;;;;;5081716;28;20280;-85
2022/10/17 11:08:12;;;;;;;2.33;1.90;;;;;;;;;;5082514;28;20181;-85
2022/10/17 11:10:43;;;;;;;3.53;2.07;;;;;;;;;;5088062;28;20267;-85
2022/10/17 11:13:14;;;;;;;3.47;1.90;;;;;;;;;;5088239;28;20213;-86
2022/10/17 11:15:48;;;;;;;2.53;1.60;;;;;;;;;;5083949;28;20202;-85
2022/10/17 11:18:33;;;;;;;2.27;1.67;;;;;;;;;;5080305;28;20185;-86
2022/10/17 11:21:02;;;;;;;5.80;1.50;;;;;;;;;;5084384;28;20195;-85
2022/10/17 11:24:06;;;;;;;6.57;2.33;;;;;;;;;;5082848;28;20187;-85
2022/10/17 11:26:34;;;;;;;7.30;2.37;;;;;;;;;;5056738;28;20317;-86
2022/10/17 11:29:01;;;;;;;2.87;1.67;;;;;;;;;;5052849;28;20180;-85
2022/10/17 11:31:29;;;;;;;4.73;1.87;;;;;;;;;;5079467;28;20207;-86
2022/10/17 11:33:58;;;;;;;3.33;2.03;;;;;;;;;;5084821;28;20181;-86
2022/10/17 11:36:27;;;;;;;1.90;1.63;;;;;;;;;;5080248;28;20277;-85
2022/10/17 11:38:55;;;;;;;4.63;2.10;;;;;;;;;;5087552;28;20203;-86
2022/10/17 11:41:36;;;;;;;4.57;1.90;;;;;;;;;;5084433;28;20176;-85
2022/10/17 11:44:01;;;;;;;2.95;1.92;;;;;;;;;;5075866;28;20175;-84
2022/10/17 11:46:27;;;;;;;3.67;1.60;;;;;;;;;;5088194;28;20193;-86
2022/10/17 11:49:04;;;;;;;4.80;1.70;;;;;;;;;;5078961;28;20176;-86
2022/10/17 11:51:35;;;;;;;1.70;1.60;;;;;;;;;;5084412;28;20277;-85
2022/10/17 11:54:00;;;;;;;5.43;1.80;;;;;;;;;;5085612;28;20259;-85
2022/10/17 11:56:47;;;;;;;3.38;2.28;;;;;;;;;;5071362;28;20272;-86
2022/10/17 11:59:28;;;;;;;2.90;1.97;;;;;;;;;;5087467;28;20188;-84
2022/10/17 12:01:56;;;;;;;2.93;1.80;;;;;;;;;;5088595;28;20183;-85
2022/10/17 12:04:40;;;;;;;7.03;2.42;;;;;;;;;;5086151;28;20192;-86
2022/10/17 12:07:26;;;;;;;4.00;2.10;;;;;;;;;;5086019;28;20227;-86
2022/10/17 12:10:03;;;;;;;3.08;2.13;;;;;;;;;;5085218;28;20176;-86
2022/10/17 12:12:33;;;;;;;1.83;1.73;;;;;;;;;;5084414;28;20192;-85
2022/10/17 12:15:10;;;;;;;2.63;1.70;;;;;;;;;;5090083;28;20214;-85
2022/10/17 12:17:39;;;;;;;2.10;1.88;;;;;;;;;;5089168;28;20203;-86
2022/10/17 12:20:23;;;;;;;2.70;2.38;;;;;;;;;;5086620;28;20218;-85
2022/10/17 12:22:50;;;;;;;2.03;1.90;;;;;;;;;;5084198;28;20198;-86
2022/10/17 12:25:38;;;;;;;2.40;2.20;;;;;;;;;;5088949;28;20177;-86
2022/10/17 12:28:10;;;;;;;7.82;2.42;;;;;;;;;;5088426;28;20182;-86
2022/10/17 12:30:35;;;;;;;3.10;2.20;;;;;;;;;;5086602;28;20211;-85
2022/10/17 12:33:25;;;;;;;2.40;2.08;;;;;;;;;;5088532;28;20190;-86
2022/10/17 12:36:10;;;;;;;2.42;2.00;;;;;;;;;;5069805;28;20310;-86
2022/10/17 12:38:35;;;;;;;2.80;1.92;;;;;;;;;;5080092;28;20183;-86
2022/10/17 12:41:01;;;;;;;4.05;2.05;;;;;;;;;;5080299;28;20247;-85
2022/10/17 12:43:26;;;;;;;3.95;1.90;;;;;;;;;;5081880;28;20176;-86
2022/10/17 12:45:52;;;;;;;2.97;2.05;;;;;;;;;;5080905;28;20211;-84
2022/10/17 12:48:33;;;;;;;3.75;2.33;;;;;;;;;;5091974;28;20184;-84
2022/10/17 12:51:08;;;;;;;4.78;2.40;;;;;;;;;;5087817;28;20187;-86
2022/10/17 12:53:36;;;;;;;3.63;2.17;;;;;;;;;;5085634;28;20259;-84
2022/10/17 12:56:01;;;;;;;2.47;2.10;;;;;;;;;;5087840;28;20201;-86
2022/10/17 12:58:27;;;;;;;5.13;2.43;;;;;;;;;;5086324;28;20226;-86
2022/10/17 13:00:54;;;;;;;4.47;2.35;;;;;;;;;;5086765;28;20173;-85
2022/10/17 13:03:27;;;;;;;2.22;2.03;;;;;;;;;;5088899;28;20185;-85
2022/10/17 13:06:01;;;;;;;4.07;2.08;;;;;;;;;;5082376;28;20170;-85
2022/10/17 13:08:28;;;;;;;3.00;1.83;;;;;;;;;;5086941;28;20199;-86
2022/10/17 13:10:53;;;;;;;3.05;2.28;;;;;;;;;;5090896;28;20222;-85
2022/10/17 13:13:20;;;;;;;3.92;2.80;;;;;;;;;;5091254;28;20188;-86
2022/10/17 13:15:46;;;;;;;3.30;2.60;;;;;;;;;;5093274;28;20245;-86
2022/10/17 13:18:16;;;;;;;4.50;2.20;;;;;;;;;;5092434;28;20219;-79
2022/10/17 13:20:41;;;;;;;5.70;2.50;;;;;;;;;;5091213;28;20199;-86
2022/10/17 13:23:21;;;;;;;4.80;2.17;;;;;;;;;;5088339;28;20475;-86
2022/10/17 13:25:46;;;;;;;7.85;2.28;;;;;;;;;;5085674;28;20180;-86
2022/10/17 13:28:12;;;;;;;3.10;2.35;;;;;;;;;;5085786;28;20189;-86
2022/10/17 13:30:37;;;;;;;3.25;2.30;;;;;;;;;;5086171;28;20181;-86
2022/10/17 13:33:13;;;;;;;2.97;2.20;;;;;;;;;;5084046;28;20181;-84
2022/10/17 13:35:39;;;;;;;8.57;3.33;;;;;;;;;;5082978;28;20349;-85
2022/10/17 13:38:08;;;;;;;10.05;2.50;;;;;;;;;;5107662;28;20181;-85
2022/10/17 13:40:38;;;;;;;3.90;2.38;;;;;;;;;;5092800;28;20242;-86
2022/10/17 13:43:08;;;;;;;5.50;2.53;;;;;;;;;;5087661;28;20260;-86
2022/10/17 13:45:35;;;;;;;2.53;2.33;;;;;;;;;;5086013;28;20188;-86
2022/10/17 13:48:03;;;;;;;3.33;2.00;;;;;;;;;;5079574;28;20177;-86
2022/10/17 13:50:49;;;;;;;3.75;2.03;;;;;;;;;;5091678;28;20180;-85
2022/10/17 13:53:32;;;;;;;2.65;2.10;;;;;;;;;;5088480;28;20239;-86
2022/10/17 13:55:57;;;;;;;2.20;2.00;;;;;;;;;;5087225;28;20216;-86
2022/10/17 13:58:23;;;;;;;2.70;2.03;;;;;;;;;;5089034;28;20177;-86
2022/10/17 14:00:51;;;;;;;2.58;2.00;;;;;;;;;;5089226;28;20507;-86
2022/10/17 14:03:16;;;;;;;5.68;2.58;;;;;;;;;;5083240;28;20174;-86
2022/10/17 14:06:00;;;;;;;2.50;2.30;;;;;;;;;;5091279;28;20173;-86
2022/10/17 14:08:26;;;;;;;2.70;2.10;;;;;;;;;;5091175;28;20181;-85
2022/10/17 14:10:51;;;;;;;4.90;2.13;;;;;;;;;;5088952;28;20192;-85
2022/10/17 14:13:21;;;;;;;3.63;2.40;;;;;;;;;;5086531;28;20178;-86
2022/10/17 14:15:47;;;;;;;2.78;2.13;;;;;;;;;;5091295;28;20200;-86
2022/10/17 14:18:16;;;;;;;8.45;2.20;;;;;;;;;;5087896;28;20188;-86
2022/10/17 14:20:44;;;;;;;3.60;1.90;;;;;;;;;;5084677;28;20188;-87
2022/10/17 14:23:27;;;;;;;8.60;2.63;;;;;;;;;;5091283;28;20250;-86
2022/10/17 14:26:03;;;;;;;4.93;2.20;;;;;;;;;;5089557;28;20180;-86
2022/10/17 14:28:28;;;;;;;3.42;2.35;;;;;;;;;;5089683;28;20173;-86
2022/10/17 14:31:07;;;;;;;2.47;2.15;;;;;;;;;;5086104;28;20226;-86
2022/10/17 14:33:33;;;;;;;2.65;1.90;;;;;;;;;;5078811;28;20181;-85
2022/10/17 14:35:59;;;;;;;4.05;2.03;;;;;;;;;;5080807;28;20197;-85
2022/10/17 14:38:26;;;;;;;6.72;2.75;;;;;;;;;;5083177;28;20181;-86
2022/10/17 14:41:01;;;;;;;8.25;2.92;;;;;;;;;;5082723;28;20185;-86
2022/10/17 14:43:28;;;;;;;4.05;2.35;;;;;;;;;;5085656;28;20263;-86
2022/10/17 14:45:56;;;;;;;3.75;2.22;;;;;;;;;;5080308;28;20204;-86
2022/10/17 14:48:22;;;;;;;5.05;2.30;;;;;;;;;;5090012;28;20321;-85
2022/10/17 14:51:06;;;;;;;4.55;2.42;;;;;;;;;;5086450;28;20181;-86